createdAt,value
2018-05-01T00:02:27.539Z,6.71
2018-05-01T00:04:56.657Z,6.78
2018-05-01T00:07:26.762Z,6.69
2018-05-01T00:09:57.430Z,6.71
2018-05-01T00:12:26.298Z,6.72
2018-05-01T00:15:00.493Z,6.72
2018-05-01T00:17:31.935Z,6.77
2018-05-01T00:20:00.962Z,6.73
2018-05-01T00:22:30.273Z,6.79
2018-05-01T00:25:00.022Z,6.80
2018-05-01T00:27:29.176Z,6.83
2018-05-01T00:29:58.614Z,6.79
2018-05-01T00:32:29.544Z,6.84
2018-05-01T00:34:58.705Z,6.84
2018-05-01T00:37:28.344Z,6.76
2018-05-01T00:39:57.718Z,6.64
2018-05-01T00:42:28.670Z,6.61
2018-05-01T00:44:58.424Z,6.59
2018-05-01T00:47:29.340Z,6.51
2018-05-01T00:49:58.750Z,6.58
2018-05-01T00:52:48.826Z,6.60
2018-05-01T00:55:19.107Z,6.57
2018-05-01T00:57:49.759Z,6.51
2018-05-01T01:00:20.727Z,6.48
2018-05-01T01:02:51.423Z,6.52
2018-05-01T01:05:20.600Z,6.49
2018-05-01T01:07:51.118Z,6.54
2018-05-01T01:10:20.501Z,6.48
2018-05-01T01:12:51.364Z,6.67
2018-05-01T01:15:22.355Z,6.65
2018-05-01T01:17:53.058Z,6.62
2018-05-01T01:20:21.976Z,6.56
2018-05-01T01:22:51.132Z,6.61
2018-05-01T01:25:21.588Z,6.59
2018-05-01T01:27:52.489Z,6.69
2018-05-01T01:30:23.631Z,6.48
2018-05-01T01:32:54.271Z,6.53
2018-05-01T01:35:21.792Z,6.56
2018-05-01T01:37:49.536Z,6.51
2018-05-01T01:40:17.840Z,6.55
2018-05-01T01:42:46.915Z,6.51
2018-05-01T01:45:14.440Z,6.59
2018-05-01T01:47:42.205Z,6.44
2018-05-01T01:50:09.761Z,6.62
2018-05-01T01:52:37.337Z,6.69
2018-05-01T01:55:04.849Z,6.64
2018-05-01T01:57:34.094Z,6.51
2018-05-01T02:00:03.406Z,6.66
2018-05-01T02:02:32.500Z,6.68
2018-05-01T02:05:00.008Z,6.73
2018-05-01T02:07:29.242Z,6.64
2018-05-01T02:09:56.784Z,6.66
2018-05-01T02:12:26.613Z,6.69
2018-05-01T02:14:54.784Z,6.66
2018-05-01T02:17:23.048Z,6.66
2018-05-01T02:19:50.583Z,6.74
2018-05-01T02:22:19.760Z,6.76
2018-05-01T02:24:49.493Z,6.80
2018-05-01T02:27:19.056Z,6.70
2018-05-01T02:29:47.458Z,6.80
2018-05-01T02:32:14.930Z,6.72
2018-05-01T02:34:43.313Z,6.70
2018-05-01T02:37:11.621Z,6.73
2018-05-01T02:39:40.918Z,6.80
2018-05-01T02:42:08.677Z,6.80
2018-05-01T02:44:37.677Z,6.92
2018-05-01T02:47:05.424Z,6.79
2018-05-01T02:49:33.204Z,6.76
2018-05-01T02:52:01.246Z,6.79
2018-05-01T02:54:28.971Z,6.76
2018-05-01T02:56:58.060Z,6.71
2018-05-01T02:59:27.164Z,6.69
2018-05-01T03:01:55.641Z,6.70
2018-05-01T03:04:23.351Z,6.63
2018-05-01T03:06:51.134Z,6.61
2018-05-01T03:09:19.437Z,6.58
2018-05-01T03:11:48.812Z,6.57
2018-05-01T03:14:16.378Z,6.53
2018-05-01T03:16:44.096Z,6.51
2018-05-01T03:19:11.847Z,6.54
2018-05-01T03:21:41.682Z,6.52
2018-05-01T03:24:09.392Z,6.56
2018-05-01T03:26:38.758Z,6.50
2018-05-01T03:29:06.310Z,6.45
2018-05-01T03:31:35.618Z,6.47
2018-05-01T03:34:04.770Z,6.53
2018-05-01T03:36:32.516Z,6.53
2018-05-01T03:39:00.341Z,6.56
2018-05-01T03:41:27.761Z,6.41
2018-05-01T03:43:55.289Z,6.55
2018-05-01T03:46:22.842Z,6.53
2018-05-01T03:48:51.138Z,6.51
2018-05-01T03:51:20.427Z,6.53
2018-05-01T03:53:48.403Z,6.48
2018-05-01T03:56:17.388Z,6.45
2018-05-01T03:58:47.266Z,6.47
2018-05-01T04:01:15.035Z,6.65
2018-05-01T04:03:42.556Z,6.48
2018-05-01T04:06:10.019Z,6.57
2018-05-01T04:08:39.350Z,6.59
2018-05-01T04:11:07.053Z,6.53
2018-05-01T04:13:35.106Z,6.55
2018-05-01T04:16:04.321Z,6.56
2018-05-01T04:18:31.843Z,6.47
2018-05-01T04:20:59.754Z,6.61
2018-05-01T04:23:27.347Z,6.60
2018-05-01T04:25:54.856Z,6.57
2018-05-01T04:28:22.427Z,6.50
2018-05-01T04:30:50.117Z,6.51
2018-05-01T04:33:17.833Z,6.58
2018-05-01T04:35:47.266Z,6.56
2018-05-01T04:38:16.489Z,6.61
2018-05-01T04:40:44.783Z,6.50
2018-05-01T04:43:12.600Z,6.50
2018-05-01T04:45:40.204Z,6.49
2018-05-01T04:48:09.502Z,6.55
2018-05-01T04:50:37.879Z,6.46
2018-05-01T04:53:07.227Z,6.55
2018-05-01T04:55:34.775Z,6.57
2018-05-01T04:58:03.992Z,6.47
2018-05-01T05:00:31.745Z,6.46
2018-05-01T05:02:59.883Z,6.57
2018-05-01T05:05:29.331Z,6.49
2018-05-01T05:07:58.363Z,6.48
2018-05-01T05:10:26.072Z,6.58
2018-05-01T05:12:53.697Z,6.50
2018-05-01T05:15:22.793Z,6.54
2018-05-01T05:17:51.900Z,6.56
2018-05-01T05:20:19.476Z,6.56
2018-05-01T05:22:47.251Z,6.55
2018-05-01T05:25:14.794Z,6.67
2018-05-01T05:27:42.354Z,6.58
2018-05-01T05:30:09.912Z,6.63
2018-05-01T05:32:39.165Z,6.69
2018-05-01T05:35:06.782Z,6.63
2018-05-01T05:37:35.942Z,6.76
2018-05-01T05:40:04.967Z,6.69
2018-05-01T05:42:34.464Z,6.74
2018-05-01T05:45:03.727Z,6.74
2018-05-01T05:47:32.843Z,6.75
2018-05-01T05:50:00.750Z,6.72
2018-05-01T05:52:28.376Z,6.89
2018-05-01T05:54:57.451Z,6.81
2018-05-01T05:57:27.127Z,6.84
2018-05-01T05:59:55.449Z,6.91
2018-05-01T06:02:23.170Z,6.85
2018-05-01T06:04:50.931Z,7.01
2018-05-01T06:07:20.195Z,6.94
2018-05-01T06:09:47.962Z,6.93
2018-05-01T06:12:17.061Z,7.04
2018-05-01T06:14:46.340Z,7.14
2018-05-01T06:17:15.407Z,7.25
2018-05-01T06:19:43.531Z,7.23
2018-05-01T06:22:12.723Z,7.25
2018-05-01T06:24:42.387Z,7.25
2018-05-01T06:27:10.101Z,7.37
2018-05-01T06:29:39.174Z,7.36
2018-05-01T06:32:06.923Z,7.44
2018-05-01T06:34:35.037Z,7.37
2018-05-01T06:37:04.030Z,7.27
2018-05-01T06:39:31.577Z,7.21
2018-05-01T06:42:01.174Z,7.36
2018-05-01T06:44:28.887Z,7.16
2018-05-01T06:46:58.003Z,7.23
2018-05-01T06:49:27.335Z,7.28
2018-05-01T06:51:55.476Z,7.34
2018-05-01T06:54:24.584Z,7.35
2018-05-01T06:56:52.417Z,7.28
2018-05-01T06:59:19.928Z,7.37
2018-05-01T07:01:47.371Z,7.36
2018-05-01T07:04:16.620Z,7.37
2018-05-01T07:06:45.678Z,7.36
2018-05-01T07:09:13.198Z,7.43
2018-05-01T07:11:40.964Z,7.43
2018-05-01T07:14:09.241Z,7.32
2018-05-01T07:16:36.944Z,7.46
2018-05-01T07:19:04.712Z,7.49
2018-05-01T07:21:32.947Z,7.57
2018-05-01T07:24:02.229Z,7.53
2018-05-01T07:26:30.000Z,7.66
2018-05-01T07:28:59.292Z,7.51
2018-05-01T07:31:28.314Z,7.70
2018-05-01T07:33:56.103Z,7.81
2018-05-01T07:36:25.193Z,7.84
2018-05-01T07:38:53.067Z,7.85
2018-05-01T07:41:20.710Z,7.80
2018-05-01T07:43:50.015Z,7.84
2018-05-01T07:46:17.765Z,8.09
2018-05-01T07:48:46.036Z,7.94
2018-05-01T07:51:15.340Z,8.00
2018-05-01T07:53:44.646Z,8.02
2018-05-01T07:56:14.290Z,8.08
2018-05-01T07:58:43.407Z,8.07
2018-05-01T08:01:12.760Z,8.26
2018-05-01T08:03:42.374Z,8.14
2018-05-01T08:06:10.001Z,8.29
2018-05-01T08:08:39.300Z,8.50
2018-05-01T08:11:07.100Z,8.37
2018-05-01T08:13:34.722Z,8.57
2018-05-01T08:16:02.517Z,8.58
2018-05-01T08:18:32.133Z,8.40
2018-05-01T08:21:00.098Z,8.55
2018-05-01T08:23:29.129Z,8.65
2018-05-01T08:25:58.253Z,8.78
2018-05-01T08:28:27.701Z,8.74
2018-05-01T08:30:56.827Z,8.75
2018-05-01T08:33:25.957Z,8.77
2018-05-01T08:35:53.962Z,9.09
2018-05-01T08:38:22.907Z,9.11
2018-05-01T08:40:52.197Z,9.19
2018-05-01T08:43:19.376Z,9.40
2018-05-01T08:45:48.750Z,9.59
2018-05-01T08:48:17.071Z,9.60
2018-05-01T08:50:47.074Z,9.90
2018-05-01T08:53:15.415Z,9.65
2018-05-01T08:55:45.567Z,10.16
2018-05-01T08:58:13.965Z,9.94
2018-05-01T09:00:41.596Z,9.99
2018-05-01T09:03:09.999Z,10.21
2018-05-01T09:05:39.463Z,10.23
2018-05-01T09:08:07.048Z,10.24
2018-05-01T09:10:35.509Z,10.50
2018-05-01T09:13:04.945Z,10.51
2018-05-01T09:15:34.261Z,10.86
2018-05-01T09:18:02.200Z,11.31
2018-05-01T09:20:31.105Z,11.35
2018-05-01T09:22:59.437Z,11.34
2018-05-01T09:25:27.074Z,11.42
2018-05-01T09:27:56.478Z,11.63
2018-05-01T09:30:24.879Z,11.83
2018-05-01T09:32:54.018Z,11.40
2018-05-01T09:35:21.593Z,11.70
2018-05-01T09:37:49.387Z,11.69
2018-05-01T09:40:18.724Z,12.11
2018-05-01T09:42:46.516Z,11.66
2018-05-01T09:45:15.926Z,11.83
2018-05-01T09:47:44.392Z,11.58
2018-05-01T09:50:12.766Z,11.69
2018-05-01T09:52:42.692Z,12.18
2018-05-01T09:55:12.937Z,12.29
2018-05-01T09:57:43.838Z,12.36
2018-05-01T10:00:26.884Z,12.26
2018-05-01T10:02:57.295Z,12.45
2018-05-01T10:05:26.547Z,12.52
2018-05-01T10:07:57.837Z,12.91
2018-05-01T10:10:29.392Z,12.93
2018-05-01T10:13:00.304Z,13.41
2018-05-01T10:15:29.628Z,13.33
2018-05-01T10:17:59.542Z,12.68
2018-05-01T10:20:29.455Z,13.14
2018-05-01T10:23:00.703Z,13.07
2018-05-01T10:25:31.544Z,12.26
2018-05-01T10:28:03.790Z,12.66
2018-05-01T10:30:34.082Z,12.61
2018-05-01T10:33:05.496Z,12.76
2018-05-01T10:35:36.140Z,13.02
2018-05-01T10:38:07.140Z,12.59
2018-05-01T10:40:38.592Z,12.75
2018-05-01T10:43:09.960Z,13.35
2018-05-01T10:45:42.092Z,14.12
2018-05-01T10:48:12.203Z,13.76
2018-05-01T10:50:42.700Z,13.88
2018-05-01T10:53:13.937Z,14.00
2018-05-01T10:55:44.587Z,14.17
2018-05-01T10:58:14.040Z,14.21
2018-05-01T11:00:45.507Z,13.62
2018-05-01T11:03:16.181Z,14.34
2018-05-01T11:05:47.052Z,14.28
2018-05-01T11:08:18.104Z,14.30
2018-05-01T11:10:47.086Z,13.62
2018-05-01T11:13:18.102Z,14.15
2018-05-01T11:15:47.443Z,14.15
2018-05-01T11:18:17.048Z,14.36
2018-05-01T11:20:46.329Z,13.98
2018-05-01T11:23:17.399Z,14.12
2018-05-01T11:25:48.285Z,14.13
2018-05-01T11:28:19.590Z,13.92
2018-05-01T11:30:51.317Z,14.13
2018-05-01T11:33:21.472Z,14.10
2018-05-01T11:35:50.711Z,14.09
2018-05-01T11:38:22.081Z,13.93
2018-05-01T11:40:53.109Z,14.05
2018-05-01T11:43:23.906Z,14.00
2018-05-01T11:45:53.198Z,14.24
2018-05-01T11:48:22.520Z,14.04
2018-05-01T11:50:53.925Z,13.43
2018-05-01T11:53:24.661Z,13.53
2018-05-01T11:55:54.219Z,13.92
2018-05-01T11:58:23.729Z,14.18
2018-05-01T12:00:54.440Z,14.32
2018-05-01T12:03:25.118Z,14.24
2018-05-01T12:05:56.685Z,14.52
2018-05-01T12:08:27.707Z,14.31
2018-05-01T12:10:58.297Z,14.43
2018-05-01T12:13:29.675Z,14.47
2018-05-01T12:15:58.892Z,14.57
2018-05-01T12:18:28.694Z,14.50
2018-05-01T12:20:58.069Z,14.12
2018-05-01T12:23:28.891Z,13.90
2018-05-01T12:25:58.850Z,14.49
2018-05-01T12:28:29.225Z,14.43
2018-05-01T12:31:00.649Z,14.46
2018-05-01T12:33:29.912Z,14.83
2018-05-01T12:35:59.130Z,14.67
2018-05-01T12:38:30.165Z,15.39
2018-05-01T12:40:59.650Z,14.92
2018-05-01T12:43:28.655Z,14.47
2018-05-01T12:45:59.266Z,14.61
2018-05-01T12:48:28.521Z,14.83
2018-05-01T12:50:57.762Z,14.64
2018-05-01T12:53:28.049Z,14.54
2018-05-01T12:55:59.004Z,14.61
2018-05-01T12:58:28.152Z,14.75
2018-05-01T13:00:57.701Z,14.95
2018-05-01T13:03:28.878Z,14.95
2018-05-01T13:05:58.105Z,14.82
2018-05-01T13:08:28.380Z,14.82
2018-05-01T13:10:57.614Z,14.89
2018-05-01T13:13:28.535Z,14.71
2018-05-01T13:15:59.976Z,14.53
2018-05-01T13:18:29.313Z,14.31
2018-05-01T13:21:00.300Z,14.42
2018-05-01T13:23:34.601Z,14.66
2018-05-01T13:26:04.523Z,14.33
2018-05-01T13:28:35.409Z,14.82
2018-05-01T13:31:07.535Z,14.72
2018-05-01T13:33:37.319Z,14.53
2018-05-01T13:36:08.171Z,14.65
2018-05-01T13:38:37.406Z,14.44
2018-05-01T13:41:08.892Z,14.49
2018-05-01T13:43:38.395Z,14.34
2018-05-01T13:46:08.148Z,14.06
2018-05-01T13:48:39.648Z,14.56
2018-05-01T13:51:09.156Z,14.67
2018-05-01T13:53:38.450Z,14.68
2018-05-01T13:56:09.471Z,14.61
2018-05-01T13:58:40.651Z,14.72
2018-05-01T14:01:11.713Z,14.50
2018-05-01T14:03:41.389Z,14.50
2018-05-01T14:06:10.652Z,14.56
2018-05-01T14:08:41.453Z,14.24
2018-05-01T14:11:11.937Z,14.24
2018-05-01T14:13:42.039Z,14.29
2018-05-01T14:16:12.951Z,14.38
2018-05-01T14:18:42.709Z,14.19
2018-05-01T14:21:14.187Z,14.53
2018-05-01T14:23:43.420Z,14.40
2018-05-01T14:26:14.085Z,14.68
2018-05-01T14:28:43.865Z,14.24
2018-05-01T14:31:13.587Z,14.46
2018-05-01T14:33:44.495Z,14.69
2018-05-01T14:36:15.207Z,14.69
2018-05-01T14:38:46.124Z,14.70
2018-05-01T14:41:16.919Z,14.86
2018-05-01T14:43:47.748Z,14.72
2018-05-01T14:46:17.210Z,14.68
2018-05-01T14:48:48.262Z,14.60
2018-05-01T14:51:18.465Z,14.64
2018-05-01T14:53:50.551Z,14.56
2018-05-01T14:56:20.654Z,14.70
2018-05-01T14:58:50.127Z,14.75
2018-05-01T15:01:21.201Z,14.56
2018-05-01T15:03:52.003Z,14.57
2018-05-01T15:06:22.907Z,14.55
2018-05-01T15:08:52.210Z,14.31
2018-05-01T15:11:20.846Z,14.05
2018-05-01T15:13:52.160Z,13.87
2018-05-01T15:16:21.278Z,14.00
2018-05-01T15:18:50.693Z,14.06
2018-05-01T15:21:21.151Z,13.92
2018-05-01T15:23:51.212Z,13.90
2018-05-01T15:26:20.404Z,13.87
2018-05-01T15:28:51.216Z,13.91
2018-05-01T15:31:22.017Z,14.16
2018-05-01T15:33:51.482Z,14.03
2018-05-01T15:36:21.273Z,14.06
2018-05-01T15:38:50.630Z,13.87
2018-05-01T15:41:20.086Z,13.83
2018-05-01T15:43:49.408Z,13.79
2018-05-01T15:46:21.153Z,13.76
2018-05-01T15:48:50.146Z,13.88
2018-05-01T15:51:20.355Z,13.57
2018-05-01T15:53:50.797Z,13.58
2018-05-01T15:56:22.026Z,13.55
2018-05-01T15:58:52.035Z,13.53
2018-05-01T16:01:21.441Z,13.57
2018-05-01T16:03:52.314Z,13.40
2018-05-01T16:06:22.808Z,13.34
2018-05-01T16:08:52.338Z,13.32
2018-05-01T16:11:23.118Z,13.46
2018-05-01T16:13:52.424Z,13.45
2018-05-01T16:16:22.179Z,13.30
2018-05-01T16:18:51.401Z,13.29
2018-05-01T16:21:22.161Z,13.35
2018-05-01T16:23:52.023Z,13.22
2018-05-01T16:26:21.446Z,13.53
2018-05-01T16:28:51.887Z,13.37
2018-05-01T16:31:21.453Z,13.26
2018-05-01T16:33:53.139Z,13.26
2018-05-01T16:36:24.450Z,13.44
2018-05-01T16:38:53.994Z,13.51
2018-05-01T16:41:24.892Z,13.57
2018-05-01T16:43:54.318Z,13.63
2018-05-01T16:46:23.686Z,13.51
2018-05-01T16:48:53.122Z,13.53
2018-05-01T16:51:23.867Z,13.73
2018-05-01T16:53:54.779Z,13.58
2018-05-01T16:56:26.436Z,13.63
2018-05-01T16:58:55.317Z,13.42
2018-05-01T17:01:24.862Z,13.54
2018-05-01T17:03:55.869Z,13.29
2018-05-01T17:06:24.983Z,13.53
2018-05-01T17:08:54.289Z,13.26
2018-05-01T17:11:25.202Z,13.16
2018-05-01T17:13:54.897Z,13.24
2018-05-01T17:16:26.197Z,13.15
2018-05-01T17:18:55.115Z,13.22
2018-05-01T17:21:25.279Z,13.27
2018-05-01T17:23:54.778Z,13.10
2018-05-01T17:26:24.691Z,13.10
2018-05-01T17:28:54.068Z,13.38
2018-05-01T17:31:23.504Z,13.40
2018-05-01T17:33:54.360Z,13.22
2018-05-01T17:36:24.360Z,13.22
2018-05-01T17:38:56.120Z,13.10
2018-05-01T17:41:26.638Z,13.25
2018-05-01T17:43:58.049Z,13.28
2018-05-01T17:46:27.303Z,13.38
2018-05-01T17:48:58.196Z,13.00
2018-05-01T17:51:29.097Z,13.13
2018-05-01T17:53:58.581Z,12.75
2018-05-01T17:56:28.337Z,12.96
2018-05-01T17:58:59.236Z,12.90
2018-05-01T18:01:29.075Z,13.04
2018-05-01T18:03:58.603Z,12.97
2018-05-01T18:06:29.974Z,12.96
2018-05-01T18:09:00.625Z,12.99
2018-05-01T18:11:31.317Z,12.90
2018-05-01T18:14:02.139Z,12.78
2018-05-01T18:16:32.218Z,12.78
2018-05-01T18:19:01.472Z,12.80
2018-05-01T18:21:31.437Z,12.75
2018-05-01T18:24:00.645Z,12.75
2018-05-01T18:26:30.145Z,12.72
2018-05-01T18:29:00.007Z,12.73
2018-05-01T18:31:29.870Z,12.71
2018-05-01T18:34:01.372Z,12.77
2018-05-01T18:36:32.050Z,12.58
2018-05-01T18:39:02.082Z,12.40
2018-05-01T18:41:31.621Z,12.41
2018-05-01T18:44:00.803Z,12.37
2018-05-01T18:46:31.628Z,11.80
2018-05-01T18:49:00.863Z,12.16
2018-05-01T18:51:30.225Z,12.23
2018-05-01T18:54:00.465Z,12.24
2018-05-01T18:56:31.269Z,12.05
2018-05-01T18:59:00.387Z,11.81
2018-05-01T19:01:30.132Z,11.88
2018-05-01T19:04:01.244Z,11.90
2018-05-01T19:06:32.080Z,11.94
2018-05-01T19:09:03.390Z,11.93
2018-05-01T19:11:32.413Z,11.83
2018-05-01T19:14:03.036Z,11.80
2018-05-01T19:16:33.806Z,11.54
2018-05-01T19:19:04.951Z,11.23
2018-05-01T19:21:35.563Z,11.32
2018-05-01T19:24:06.546Z,11.24
2018-05-01T19:26:37.527Z,11.04
2018-05-01T19:29:09.504Z,11.13
2018-05-01T19:31:38.879Z,11.21
2018-05-01T19:34:10.257Z,11.23
2018-05-01T19:36:42.063Z,11.08
2018-05-01T19:39:10.981Z,11.09
2018-05-01T19:41:42.499Z,10.73
2018-05-01T19:44:12.868Z,10.37
2018-05-01T19:46:43.775Z,10.60
2018-05-01T19:49:13.369Z,10.43
2018-05-01T19:51:42.745Z,10.50
2018-05-01T19:54:12.546Z,10.63
2018-05-01T19:56:41.506Z,10.66
2018-05-01T19:59:12.197Z,10.72
2018-05-01T20:01:41.494Z,10.64
2018-05-01T20:04:11.311Z,10.48
2018-05-01T20:06:42.775Z,10.45
2018-05-01T20:09:11.957Z,10.44
2018-05-01T20:11:42.712Z,10.34
2018-05-01T20:14:12.233Z,10.38
2018-05-01T20:16:43.285Z,10.35
2018-05-01T20:19:13.737Z,10.35
2018-05-01T20:21:43.133Z,10.31
2018-05-01T20:24:14.013Z,10.47
2018-05-01T20:26:45.520Z,10.12
2018-05-01T20:29:16.190Z,10.19
2018-05-01T20:31:45.852Z,10.18
2018-05-01T20:34:17.186Z,9.83
2018-05-01T20:36:47.869Z,10.00
2018-05-01T20:39:18.631Z,10.12
2018-05-01T20:41:47.831Z,10.15
2018-05-01T20:44:18.473Z,10.04
2018-05-01T20:46:49.698Z,10.01
2018-05-01T20:49:18.763Z,10.04
2018-05-01T20:51:49.669Z,9.85
2018-05-01T20:54:19.628Z,9.58
2018-05-01T20:56:50.370Z,9.66
2018-05-01T20:59:21.412Z,9.59
2018-05-01T21:01:52.237Z,9.84
2018-05-01T21:04:21.305Z,9.70
2018-05-01T21:06:51.924Z,9.91
2018-05-01T21:09:21.095Z,10.00
2018-05-01T21:11:51.750Z,10.03
2018-05-01T21:14:22.697Z,10.09
2018-05-01T21:16:52.798Z,10.24
2018-05-01T21:19:21.827Z,10.10
2018-05-01T21:21:50.928Z,10.20
2018-05-01T21:24:20.320Z,10.00
2018-05-01T21:26:50.230Z,9.88
2018-05-01T21:29:20.132Z,9.83
2018-05-01T21:31:49.304Z,9.75
2018-05-01T21:34:18.094Z,9.64
2018-05-01T21:36:48.696Z,9.81
2018-05-01T21:39:18.051Z,9.54
2018-05-01T21:41:47.963Z,9.61
2018-05-01T21:44:17.111Z,9.33
2018-05-01T21:46:46.326Z,9.63
2018-05-01T21:49:16.778Z,9.50
2018-05-01T21:51:45.612Z,9.28
2018-05-01T21:54:16.926Z,9.23
2018-05-01T21:56:47.644Z,9.32
2018-05-01T21:59:18.381Z,9.17
2018-05-01T22:01:48.187Z,9.02
2018-05-01T22:04:19.156Z,8.95
2018-05-01T22:06:48.013Z,8.99
2018-05-01T22:09:17.837Z,9.01
2018-05-01T22:11:48.585Z,9.07
2018-05-01T22:14:19.453Z,9.05
2018-05-01T22:16:50.762Z,9.14
2018-05-01T22:19:20.116Z,9.10
2018-05-01T22:21:49.295Z,9.17
2018-05-01T22:24:18.690Z,9.14
2018-05-01T22:26:49.297Z,9.18
2018-05-01T22:29:21.460Z,9.17
2018-05-01T22:31:52.214Z,9.16
2018-05-01T22:34:21.738Z,9.25
2018-05-01T22:36:52.620Z,9.27
2018-05-01T22:39:21.835Z,9.27
2018-05-01T22:41:52.667Z,9.21
2018-05-01T22:44:21.454Z,9.05
2018-05-01T22:46:52.185Z,9.04
2018-05-01T22:49:22.776Z,8.99
2018-05-01T22:51:52.385Z,9.00
2018-05-01T22:54:21.260Z,8.90
2018-05-01T22:56:52.219Z,9.07
2018-05-01T22:59:23.085Z,8.79
2018-05-01T23:01:53.597Z,8.92
2018-05-01T23:04:25.591Z,9.01
2018-05-01T23:06:56.515Z,8.87
2018-05-01T23:09:28.471Z,8.89
2018-05-01T23:11:57.806Z,8.93
2018-05-01T23:14:27.246Z,9.01
2018-05-01T23:16:56.631Z,8.99
2018-05-01T23:19:27.511Z,8.93
2018-05-01T23:21:57.419Z,8.99
2018-05-01T23:24:28.426Z,8.98
2018-05-01T23:26:59.403Z,8.85
2018-05-01T23:29:30.065Z,8.76
2018-05-01T23:31:59.574Z,8.74
2018-05-01T23:34:29.384Z,8.73
2018-05-01T23:37:00.099Z,8.71
2018-05-01T23:39:30.157Z,8.58
2018-05-01T23:42:01.103Z,8.54
2018-05-01T23:44:31.737Z,8.70
2018-05-01T23:47:02.000Z,8.75
2018-05-01T23:49:31.295Z,8.78
2018-05-01T23:52:02.155Z,8.81
2018-05-01T23:54:33.403Z,8.79
2018-05-01T23:57:03.214Z,8.78
2018-05-01T23:59:34.123Z,8.83
